Time;durP1;ratioP1;P1;durP2;ratioP2;P2;SDS_P1;SDS_P2;PMS_P1;PMS_P2;Temp;Humidity;BMP_temperature;BMP_pressure;BME280_temperature;BME280_humidity;BME280_pressure;Samples;Min_cycle;Max_cycle;Signal;HPM_P1;HPM_P2
2022/04/12 00:00:30;;;;;;;19.45;12.60;;;;;;;;;;5074544;28;20496;-77
2022/04/12 00:02:56;;;;;;;15.60;10.45;;;;;;;;;;5056256;28;20020;-74
2022/04/12 00:05:22;;;;;;;16.40;11.05;;;;;;;;;;5074079;28;20059;-77
2022/04/12 00:07:49;;;;;;;17.25;10.68;;;;;;;;;;5074100;28;20025;-78
2022/04/12 00:10:15;;;;;;;16.33;10.85;;;;;;;;;;5073967;28;20049;-76
2022/04/12 00:12:41;;;;;;;17.73;10.55;;;;;;;;;;5074059;28;20031;-76
2022/04/12 00:15:09;;;;;;;13.57;10.20;;;;;;;;;;5074014;28;20029;-77
2022/04/12 00:20:21;;;;;;;21.90;13.95;;;;;;;;;;5074344;28;20405;-77
2022/04/12 00:22:47;;;;;;;23.48;13.40;;;;;;;;;;5073965;28;20023;-76
2022/04/12 00:25:14;;;;;;;18.85;11.85;;;;;;;;;;5073929;28;20458;-75
2022/04/12 00:27:40;;;;;;;20.27;12.73;;;;;;;;;;5073924;28;20059;-76
2022/04/12 00:30:07;;;;;;;16.30;11.07;;;;;;;;;;5073820;28;20047;-76
2022/04/12 00:32:34;;;;;;;15.18;9.90;;;;;;;;;;5073726;28;20028;-77
2022/04/12 00:35:00;;;;;;;14.23;9.45;;;;;;;;;;5073303;28;20111;-76
2022/04/12 00:37:27;;;;;;;13.85;9.27;;;;;;;;;;5073957;28;20020;-78
2022/04/12 00:39:53;;;;;;;15.88;10.63;;;;;;;;;;5073832;28;20033;-78
2022/04/12 00:42:19;;;;;;;18.83;12.77;;;;;;;;;;5073398;28;20021;-78
2022/04/12 00:44:45;;;;;;;16.85;11.20;;;;;;;;;;5073789;28;20103;-79
2022/04/12 00:47:12;;;;;;;12.57;8.90;;;;;;;;;;5073473;28;20433;-78
2022/04/12 00:49:38;;;;;;;11.82;8.15;;;;;;;;;;5073909;28;20446;-78
2022/04/12 00:52:04;;;;;;;14.05;8.02;;;;;;;;;;5073477;28;20078;-77
2022/04/12 00:54:32;;;;;;;11.63;8.18;;;;;;;;;;5073421;28;20098;-77
2022/04/12 00:56:58;;;;;;;11.40;7.70;;;;;;;;;;5073690;28;20103;-77
2022/04/12 00:59:25;;;;;;;12.57;8.40;;;;;;;;;;5073473;28;20035;-77
2022/04/12 01:01:51;;;;;;;16.65;8.25;;;;;;;;;;5073383;28;20040;-77
2022/04/12 01:04:18;;;;;;;11.30;7.30;;;;;;;;;;5073300;28;20029;-75
2022/04/12 01:06:44;;;;;;;10.55;7.57;;;;;;;;;;5073345;28;20028;-74
2022/04/12 01:09:10;;;;;;;10.27;8.00;;;;;;;;;;5073188;28;20421;-77
2022/04/12 01:11:37;;;;;;;16.25;8.43;;;;;;;;;;5073232;28;20090;-75
2022/04/12 01:14:03;;;;;;;13.45;8.30;;;;;;;;;;5072942;28;20036;-75
2022/04/12 01:16:30;;;;;;;12.50;8.43;;;;;;;;;;5073271;28;20016;-77
2022/04/12 01:18:58;;;;;;;14.15;8.70;;;;;;;;;;5072989;28;20428;-76
2022/04/12 01:21:24;;;;;;;14.55;8.88;;;;;;;;;;5073022;28;20027;-74
2022/04/12 01:23:50;;;;;;;13.68;8.43;;;;;;;;;;5073047;28;20032;-74
2022/04/12 01:26:16;;;;;;;14.77;9.15;;;;;;;;;;5072993;28;20433;-73
2022/04/12 01:28:45;;;;;;;17.25;10.77;;;;;;;;;;5073113;28;20039;-77
2022/04/12 01:31:12;;;;;;;14.30;8.35;;;;;;;;;;5072965;28;20028;-77
2022/04/12 01:33:38;;;;;;;11.05;8.05;;;;;;;;;;5073894;28;20021;-76
2022/04/12 01:36:04;;;;;;;14.13;8.40;;;;;;;;;;5058897;28;20037;-77
2022/04/12 01:38:30;;;;;;;13.77;10.07;;;;;;;;;;5077107;28;20032;-78
2022/04/12 01:40:56;;;;;;;14.48;9.02;;;;;;;;;;5077383;28;20020;-75
2022/04/12 01:43:22;;;;;;;14.90;9.18;;;;;;;;;;5077046;28;20017;-78
2022/04/12 01:45:48;;;;;;;14.13;9.27;;;;;;;;;;5077118;28;20074;-78
2022/04/12 01:48:14;;;;;;;10.18;7.03;;;;;;;;;;5076961;28;20028;-77
2022/04/12 01:50:40;;;;;;;12.27;7.25;;;;;;;;;;5076709;28;20099;-74
2022/04/12 01:53:06;;;;;;;10.68;7.65;;;;;;;;;;5076814;28;20017;-74
2022/04/12 01:55:32;;;;;;;8.90;6.55;;;;;;;;;;5076797;28;20112;-75
2022/04/12 01:57:59;;;;;;;9.32;6.10;;;;;;;;;;5076962;28;20021;-73
2022/04/12 02:00:25;;;;;;;10.23;6.40;;;;;;;;;;5076853;28;20055;-78
2022/04/12 02:02:51;;;;;;;9.63;6.45;;;;;;;;;;5076638;28;20020;-77
2022/04/12 02:05:17;;;;;;;11.15;6.57;;;;;;;;;;5076535;28;20025;-77
2022/04/12 02:07:43;;;;;;;9.80;6.63;;;;;;;;;;5076723;28;20025;-76
2022/04/12 02:10:09;;;;;;;8.35;5.47;;;;;;;;;;5076348;28;20509;-77
2022/04/12 02:12:36;;;;;;;9.93;6.18;;;;;;;;;;5076346;28;20065;-77
2022/04/12 02:15:02;;;;;;;8.65;7.13;;;;;;;;;;5076438;28;20125;-77
2022/04/12 02:17:28;;;;;;;13.80;8.00;;;;;;;;;;5076453;28;20359;-78
2022/04/12 02:19:54;;;;;;;16.20;8.73;;;;;;;;;;5076119;28;20382;-77
2022/04/12 02:22:20;;;;;;;11.15;7.25;;;;;;;;;;5076318;28;20031;-77
2022/04/12 02:24:46;;;;;;;10.27;6.50;;;;;;;;;;5076220;28;20115;-79
2022/04/12 02:27:13;;;;;;;10.75;7.10;;;;;;;;;;5076012;28;20016;-78
2022/04/12 02:29:39;;;;;;;12.13;8.50;;;;;;;;;;5058186;28;20078;-77
2022/04/12 02:32:06;;;;;;;11.65;8.00;;;;;;;;;;5076176;28;20382;-77
2022/04/12 02:34:32;;;;;;;12.25;7.65;;;;;;;;;;5075838;28;20044;-75
2022/04/12 02:36:58;;;;;;;10.90;7.55;;;;;;;;;;5076162;28;20024;-75
2022/04/12 02:39:24;;;;;;;9.60;6.82;;;;;;;;;;5075688;28;20037;-76
2022/04/12 02:41:50;;;;;;;12.48;6.28;;;;;;;;;;5076086;28;20028;-76
2022/04/12 02:44:17;;;;;;;29.23;9.73;;;;;;;;;;5076186;28;20020;-76
2022/04/12 02:46:43;;;;;;;13.88;7.40;;;;;;;;;;5075849;28;20072;-75
2022/04/12 02:49:09;;;;;;;8.02;6.68;;;;;;;;;;5075940;28;20025;-75
2022/04/12 02:51:35;;;;;;;10.38;6.05;;;;;;;;;;5075589;28;20060;-74
2022/04/12 02:54:01;;;;;;;8.70;6.05;;;;;;;;;;5075686;28;20497;-77
2022/04/12 02:56:27;;;;;;;9.25;6.47;;;;;;;;;;5075600;28;20031;-76
2022/04/12 02:58:53;;;;;;;10.57;6.03;;;;;;;;;;5075754;28;20024;-77
2022/04/12 03:01:19;;;;;;;11.60;6.82;;;;;;;;;;5075569;28;20029;-76
2022/04/12 03:03:45;;;;;;;10.18;6.18;;;;;;;;;;5076009;28;20024;-78
2022/04/12 03:06:11;;;;;;;7.45;5.78;;;;;;;;;;5075371;28;20394;-76
2022/04/12 03:08:38;;;;;;;10.95;6.38;;;;;;;;;;5075365;28;20063;-77
2022/04/12 03:11:04;;;;;;;10.50;6.35;;;;;;;;;;5075218;28;20028;-77
2022/04/12 03:13:30;;;;;;;11.98;7.40;;;;;;;;;;5075249;28;20108;-77
2022/04/12 03:15:56;;;;;;;10.30;7.25;;;;;;;;;;5075249;28;20027;-77
2022/04/12 03:18:22;;;;;;;11.27;7.63;;;;;;;;;;5075240;28;20033;-77
2022/04/12 03:20:51;;;;;;;11.65;8.10;;;;;;;;;;5075141;28;20032;-74
2022/04/12 03:23:17;;;;;;;11.95;7.85;;;;;;;;;;5075155;28;20016;-77
2022/04/12 03:25:43;;;;;;;12.80;8.00;;;;;;;;;;5075353;28;20021;-74
2022/04/12 03:28:10;;;;;;;11.48;7.28;;;;;;;;;;5074945;28;20031;-74
2022/04/12 03:30:36;;;;;;;11.30;7.88;;;;;;;;;;5074986;28;20028;-77
2022/04/12 03:33:02;;;;;;;12.27;8.05;;;;;;;;;;5075657;28;20497;-77
2022/04/12 03:35:29;;;;;;;16.33;10.30;;;;;;;;;;5074666;28;20064;-77
2022/04/12 03:38:01;;;;;;;18.05;12.98;;;;;;;;;;5075027;28;20100;-75
2022/04/12 03:40:31;;;;;;;16.75;12.10;;;;;;;;;;5074845;28;20041;-77
2022/04/12 03:43:01;;;;;;;16.02;12.65;;;;;;;;;;5074726;28;20020;-77
2022/04/12 03:45:27;;;;;;;16.70;11.20;;;;;;;;;;5074690;28;20028;-74
2022/04/12 03:47:53;;;;;;;13.98;10.60;;;;;;;;;;5074595;28;20028;-77
2022/04/12 03:50:19;;;;;;;15.85;11.45;;;;;;;;;;5074548;28;20433;-74
2022/04/12 03:52:45;;;;;;;15.07;11.02;;;;;;;;;;5074478;28;20029;-77
2022/04/12 03:55:11;;;;;;;13.20;10.57;;;;;;;;;;5074453;28;20032;-77
2022/04/12 03:57:38;;;;;;;13.68;11.63;;;;;;;;;;5074287;28;20027;-78
2022/04/12 04:00:08;;;;;;;21.23;12.98;;;;;;;;;;5074392;28;20107;-77
2022/04/12 04:02:34;;;;;;;16.02;12.27;;;;;;;;;;5075006;28;20404;-75
2022/04/12 04:05:00;;;;;;;17.20;12.30;;;;;;;;;;5074588;28;20637;-76
2022/04/12 04:07:27;;;;;;;22.85;14.73;;;;;;;;;;5074318;28;20029;-76
2022/04/12 04:09:53;;;;;;;23.20;12.57;;;;;;;;;;5056082;28;20045;-75
2022/04/12 04:12:20;;;;;;;18.42;13.52;;;;;;;;;;5074129;28;20021;-72
2022/04/12 04:14:47;;;;;;;21.67;15.50;;;;;;;;;;5074083;28;20033;-77
2022/04/12 04:17:13;;;;;;;23.77;14.05;;;;;;;;;;5074081;28;20020;-78
2022/04/12 04:19:39;;;;;;;18.10;12.15;;;;;;;;;;5073971;28;20095;-78
2022/04/12 04:22:06;;;;;;;21.27;12.93;;;;;;;;;;5074191;28;20166;-78
2022/04/12 04:24:32;;;;;;;15.40;9.65;;;;;;;;;;5074027;28;20074;-78
2022/04/12 04:26:58;;;;;;;21.85;10.05;;;;;;;;;;5074169;28;20063;-78
2022/04/12 04:29:27;;;;;;;13.85;10.50;;;;;;;;;;5055975;28;20021;-78
2022/04/12 04:31:53;;;;;;;18.90;9.60;;;;;;;;;;5073875;28;20032;-78
2022/04/12 04:34:19;;;;;;;24.15;14.85;;;;;;;;;;5073683;28;20032;-75
2022/04/12 04:36:45;;;;;;;18.90;12.15;;;;;;;;;;5073605;28;20115;-77
2022/04/12 04:39:11;;;;;;;19.95;13.02;;;;;;;;;;5073911;28;20103;-74
2022/04/12 04:41:37;;;;;;;20.33;11.68;;;;;;;;;;5073529;28;20067;-74
2022/04/12 04:44:03;;;;;;;30.48;17.02;;;;;;;;;;5073500;28;20020;-74
2022/04/12 04:46:30;;;;;;;26.38;15.57;;;;;;;;;;5055705;28;20145;-74
2022/04/12 04:48:56;;;;;;;27.55;16.30;;;;;;;;;;5073432;28;20099;-72
2022/04/12 04:51:22;;;;;;;21.33;14.88;;;;;;;;;;5073123;28;20024;-77
2022/04/12 04:53:56;;;;;;;32.88;17.63;;;;;;;;;;5073164;28;20020;-75
2022/04/12 04:56:22;;;;;;;25.30;17.27;;;;;;;;;;5073364;28;20086;-75
2022/04/12 04:58:48;;;;;;;31.60;18.63;;;;;;;;;;5073332;28;20020;-74
2022/04/12 05:01:14;;;;;;;38.33;20.90;;;;;;;;;;5073135;28;20047;-77
2022/04/12 05:03:40;;;;;;;35.47;19.33;;;;;;;;;;5073146;28;20095;-74
2022/04/12 05:06:06;;;;;;;38.13;20.73;;;;;;;;;;5073285;28;20029;-74
2022/04/12 05:08:32;;;;;;;27.58;18.90;;;;;;;;;;5072098;28;20105;-77
2022/04/12 05:10:58;;;;;;;34.22;19.50;;;;;;;;;;5073255;28;20031;-74
2022/04/12 05:13:24;;;;;;;27.10;17.63;;;;;;;;;;5072910;28;20377;-74
2022/04/12 05:15:50;;;;;;;25.25;16.38;;;;;;;;;;5073154;28;20157;-74
2022/04/12 05:18:17;;;;;;;33.58;18.60;;;;;;;;;;5073118;28;20375;-74
2022/04/12 05:20:43;;;;;;;35.78;18.05;;;;;;;;;;5072835;28;20120;-74
2022/04/12 05:23:09;;;;;;;37.30;20.20;;;;;;;;;;5073162;28;20498;-73
2022/04/12 05:25:36;;;;;;;31.23;20.63;;;;;;;;;;5072765;28;20148;-77
2022/04/12 05:28:01;;;;;;;35.80;22.05;;;205.10;2252.80;;;;;;5072955;28;20032;-76
2022/04/12 05:30:27;;;;;;;37.67;24.17;;;205.10;2252.80;;;;;;5073025;28;20029;-77
2022/04/12 05:32:53;;;;;;;38.40;23.98;;;205.10;2252.80;;;;;;5072884;28;20028;-76
2022/04/12 05:35:19;;;;;;;43.47;25.20;;;205.10;2252.80;;;;;;5072636;28;20067;-76
2022/04/12 05:37:52;;;;;;;36.65;23.90;;;205.10;2252.80;;;;;;5072839;28;20091;-77
2022/04/12 05:40:19;;;;;;;36.17;24.13;;;205.50;2227.20;;;;;;5073304;28;20082;-77
2022/04/12 05:42:45;;;;;;;33.92;21.00;;;;;;;;;;5072959;28;20024;-76
2022/04/12 05:45:12;;;;;;;34.10;20.92;;;;;;;;;;5072837;28;20024;-74
2022/04/12 05:47:49;;;;;;;40.72;23.55;;;230.40;2150.40;;;;;;5072693;28;20032;-74
2022/04/12 05:50:15;;;;;;;46.75;27.98;;;;;;;;;;5072666;28;20024;-78
2022/04/12 05:52:42;;;;;;;37.85;23.70;;;;;;;;;;5055046;28;20520;-79
2022/04/12 05:55:09;;;;;;;33.75;21.25;;;;;;;;;;5054674;28;20037;-79
2022/04/12 05:57:37;;;;;;;30.50;19.58;;;230.50;2150.40;;;;;;5073018;28;20021;-76
2022/04/12 06:00:07;;;;;;;33.33;20.70;;;230.50;2150.40;;;;;;5072465;28;20463;-76
2022/04/12 06:02:33;;;;;;;43.93;24.60;;;205.70;2252.80;;;;;;5072874;28;20032;-76
2022/04/12 06:04:59;;;;;;;41.90;26.23;;;230.70;2150.40;;;;;;5072726;28;20056;-74
2022/04/12 06:07:32;;;;;;;40.33;26.00;;;230.70;2150.40;;;;;;5072551;28;20059;-74
2022/04/12 06:09:59;;;;;;;45.28;29.25;;;;;;;;;;5072419;28;20524;-74
2022/04/12 06:12:25;;;;;;;39.30;30.80;;;;;;;;;;5072506;28;20031;-74
2022/04/12 06:14:51;;;;;;;44.38;30.05;;;;;;;;;;5072323;28;20486;-77
2022/04/12 06:17:18;;;;;;;42.97;30.60;;;;;;;;;;5072485;28;20048;-78
2022/04/12 06:19:44;;;;;;;50.90;34.80;;;;;;;;;;5073740;28;20035;-78
2022/04/12 06:22:10;;;;;;;56.92;37.67;;;;;;;;;;5076451;28;20016;-79
2022/04/12 06:24:35;;;;;;;61.42;38.05;;;231.30;2099.20;;;;;;5076325;28;20032;-76
2022/04/12 06:27:01;;;;;;;65.20;41.08;;;;;;;;;;5075992;28;20021;-74
2022/04/12 06:29:28;;;;;;;55.28;34.95;;;;;;;;;;5075833;28;20108;-72
2022/04/12 06:31:54;;;;;;;49.00;32.60;;;;;;;;;;5075873;28;20071;-78
2022/04/12 06:34:20;;;;;;;44.58;29.80;;;;;;;;;;5075982;28;20036;-77
2022/04/12 06:36:46;;;;;;;36.53;25.30;;;;;;;;;;5076147;28;20493;-74
2022/04/12 06:39:12;;;;;;;33.28;23.40;;;;;;;;;;5075932;28;20090;-74
2022/04/12 06:41:38;;;;;;;33.92;22.08;;;;;;;;;;5076013;28;20040;-74
2022/04/12 06:44:06;;;;;;;36.80;22.63;;;;;;;;;;5075923;28;20020;-73
2022/04/12 06:46:32;;;;;;;32.88;21.83;;;;;;;;;;5075796;28;20029;-77
2022/04/12 06:48:58;;;;;;;37.08;22.48;;;;;;;;;;5075736;28;20485;-74
2022/04/12 06:51:24;;;;;;;52.22;32.22;;;;;;;;;;5075549;28;20078;-74
2022/04/12 06:53:50;;;;;;;37.92;25.02;;;;;;;;;;5075624;28;20024;-77
2022/04/12 06:56:17;;;;;;;38.55;25.92;;;;;;;;;;5075781;28;20024;-76
2022/04/12 06:58:43;;;;;;;36.05;24.30;;;;;;;;;;5075934;28;20051;-76
2022/04/12 07:01:09;;;;;;;38.75;24.50;;;;;;;;;;5075375;28;20031;-78
2022/04/12 07:03:35;;;;;;;40.88;27.30;;;;;;;;;;5075720;28;20021;-76
2022/04/12 07:06:01;;;;;;;41.78;27.27;;;;;;;;;;5075551;28;20028;-75
2022/04/12 07:08:28;;;;;;;50.05;28.23;;;;;;;;;;5075317;28;20056;-75
2022/04/12 07:10:54;;;;;;;50.63;32.63;;;;;;;;;;5075535;28;20031;-76
2022/04/12 07:13:20;;;;;;;40.90;25.23;;;;;;;;;;5075230;28;20023;-76
2022/04/12 07:15:46;;;;;;;46.45;27.52;;;;;;;;;;5075157;28;20436;-76
2022/04/12 07:18:12;;;;;;;39.67;26.52;;;;;;;;;;5075546;28;20055;-76
2022/04/12 07:20:38;;;;;;;43.65;27.77;;;;;;;;;;5075155;28;20032;-74
2022/04/12 07:23:04;;;;;;;40.90;24.83;;;;;;;;;;5074992;28;20100;-77
2022/04/12 07:25:30;;;;;;;53.78;30.00;;;;;;;;;;5075280;28;20116;-75
2022/04/12 07:27:56;;;;;;;40.70;26.63;;;;;;;;;;5075341;28;20032;-75
2022/04/12 07:30:23;;;;;;;43.80;24.63;;;;;;;;;;5074877;28;20108;-76
2022/04/12 07:32:49;;;;;;;41.10;27.30;;;;;;;;;;5074085;28;20024;-75
2022/04/12 07:35:15;;;;;;;37.60;25.50;;;;;;;;;;5074904;28;20086;-76
2022/04/12 07:37:44;;;;;;;42.15;27.02;;;;;;;;;;5075107;28;20025;-75
2022/04/12 07:40:10;;;;;;;42.78;25.48;;;;;;;;;;5075302;28;20107;-75
2022/04/12 07:42:36;;;;;;;46.58;28.38;;;;;;;;;;5074823;28;20475;-75
2022/04/12 07:45:02;;;;;;;57.63;27.27;;;;;;;;;;5074864;28;20032;-73
2022/04/12 07:47:28;;;;;;;41.17;24.85;;;;;;;;;;5074389;28;20379;-74
2022/04/12 07:49:55;;;;;;;50.25;29.10;;;;;;;;;;5056964;28;20403;-73
2022/04/12 07:52:21;;;;;;;50.90;26.48;;;;;;;;;;5074515;28;20029;-74
2022/04/12 07:54:46;;;;;;;42.45;24.85;;;384.40;1587.20;;;;;;5074337;28;20036;-74
2022/04/12 07:57:12;;;;;;;43.60;25.52;;;384.40;1587.20;;;;;;5074510;28;20016;-76
2022/04/12 07:59:38;;;;;;;33.92;20.00;;;384.50;1612.80;;;;;;5074298;28;20035;-76
2022/04/12 08:02:04;;;;;;;32.83;18.83;;;;;;;;;;5074209;28;20024;-76
2022/04/12 08:04:30;;;;;;;37.13;20.13;;;409.60;1536.00;;;;;;5074160;28;20059;-77
2022/04/12 08:06:56;;;;;;;24.45;12.40;;;;;;;;;;5074141;28;20055;-77
2022/04/12 08:09:22;;;;;;;27.48;9.15;;;;;;;;;;5073900;28;20057;-77
2022/04/12 08:11:48;;;;;;;16.25;11.05;;;409.90;1433.60;;;;;;5073927;28;20031;-78
2022/04/12 08:14:13;;;;;;;18.75;9.40;;;409.90;1433.60;;;;;;5056357;28;20044;-80
2022/04/12 08:16:39;;;;;;;15.52;7.05;;;410.20;1382.40;;;;;;5074071;28;20020;-76
2022/04/12 08:19:05;;;;;;;20.67;9.10;;;;;;;;;;5074268;28;20036;-75
2022/04/12 08:21:32;;;;;;;16.42;9.27;;;;;;;;;;5073846;28;20027;-75
2022/04/12 08:23:58;;;;;;;18.88;8.48;;;;;;;;;;5074027;28;20024;-75
2022/04/12 08:26:24;;;;;;;19.63;8.07;;;;;;;;;;5073697;28;20043;-76
2022/04/12 08:28:51;;;;;;;19.33;8.43;;;;;;;;;;5074018;28;20497;-76
2022/04/12 08:31:17;;;;;;;12.15;7.10;;;;;;;;;;5073901;28;20021;-76
2022/04/12 08:33:43;;;;;;;12.27;6.50;;;;;;;;;;5073567;28;20051;-73
2022/04/12 08:36:09;;;;;;;9.82;6.15;;;;;;;;;;5073826;28;20073;-73
2022/04/12 08:38:35;;;;;;;11.77;5.43;;;;;;;;;;5073270;28;20024;-76
2022/04/12 08:41:02;;;;;;;11.57;5.80;;;;;;;;;;5073643;28;20024;-75
2022/04/12 08:43:29;;;;;;;10.85;6.45;;;436.10;1254.40;;;;;;5073313;28;20067;-78
2022/04/12 08:45:56;;;;;;;10.43;5.25;;;;;;;;;;5073647;28;20564;-77
2022/04/12 08:48:23;;;;;;;10.48;5.97;;;;;;;;;;5073435;28;20443;-77
2022/04/12 08:50:49;;;;;;;7.72;4.28;;;;;;;;;;5073444;28;20028;-73
2022/04/12 08:53:17;;;;;;;8.68;4.90;;;;;;;;;;5073313;28;20415;-75
2022/04/12 08:55:45;;;;;;;15.30;5.90;;;;;;;;;;5073127;28;20115;-73
2022/04/12 08:58:11;;;;;;;5.32;3.78;;;;;;;;;;5073409;28;20020;-74
2022/04/12 09:00:37;;;;;;;23.95;6.80;;;;;;;;;;5073575;28;20028;-74
2022/04/12 09:03:04;;;;;;;12.80;8.75;;;;;;;;;;5073586;28;20025;-74
2022/04/12 09:05:34;;;;;;;7.15;4.65;;;;;;;;;;5055365;28;20047;-73
2022/04/12 09:08:00;;;;;;;8.57;4.45;;;;;;;;;;5073282;28;20046;-74
2022/04/12 09:10:36;;;;;;;8.57;5.55;;;;;;;;;;5072759;28;20060;-78
2022/04/12 09:13:12;;;;;;;12.02;4.75;;;;;;;;;;5072733;28;20024;-77
2022/04/12 09:15:45;;;;;;;9.98;5.13;;;;;;;;;;5072746;28;20032;-77
2022/04/12 09:18:11;;;;;;;9.80;5.15;;;;;;;;;;5072942;28;20029;-77
2022/04/12 09:20:37;;;;;;;11.63;4.80;;;;;;;;;;5073052;28;20047;-78
2022/04/12 09:23:03;;;;;;;6.45;3.90;;;;;;;;;;5073196;28;20096;-78
2022/04/12 09:25:29;;;;;;;6.88;4.45;;;;;;;;;;5072884;28;20033;-78
2022/04/12 09:27:55;;;;;;;7.40;4.60;;;;;;;;;;5054785;28;20016;-77
2022/04/12 09:30:22;;;;;;;5.32;4.25;;;;;;;;;;5072521;28;20619;-78
2022/04/12 09:32:49;;;;;;;6.45;4.00;;;;;;;;;;5072696;28;20027;-77
2022/04/12 09:35:16;;;;;;;5.40;3.38;;;;;;;;;;5072780;28;20079;-72
2022/04/12 09:37:43;;;;;;;6.25;4.05;;;;;;;;;;5072960;28;20028;-78
2022/04/12 09:40:13;;;;;;;7.65;5.20;;;;;;;;;;5073178;28;20040;-77
2022/04/12 09:42:50;;;;;;;11.30;5.95;;;538.50;998.40;;;;;;5054796;28;20497;-74
2022/04/12 09:45:18;;;;;;;11.55;5.18;;;;;;;;;;5054989;28;20036;-78
2022/04/12 09:47:45;;;;;;;8.43;5.07;;;;;;;;;;5072577;28;20017;-77
2022/04/12 09:50:11;;;;;;;12.68;5.43;;;;;;;;;;5054906;28;20051;-75
2022/04/12 09:52:37;;;;;;;12.10;4.82;;;;;;;;;;5072692;28;20021;-75
2022/04/12 09:55:04;;;;;;;9.48;4.63;;;;;;;;;;5074384;28;20060;-74
2022/04/12 09:57:31;;;;;;;6.20;3.78;;;;;;;;;;5076677;28;20100;-76
2022/04/12 09:59:57;;;;;;;9.50;5.25;;;;;;;;;;5076335;28;20020;-75
2022/04/12 10:02:24;;;;;;;9.50;6.10;;;;;;;;;;5076496;28;20031;-74
2022/04/12 10:04:54;;;;;;;5.68;4.57;;;;;;;;;;5076577;28;20498;-74
2022/04/12 10:07:21;;;;;;;10.68;5.78;;;;;;;;;;5058374;28;20028;-74
2022/04/12 10:09:49;;;;;;;6.30;4.65;;;;;;;;;;5076025;28;20044;-73
2022/04/12 10:12:17;;;;;;;7.38;5.53;;;;;;;;;;5076281;28;20074;-79
2022/04/12 10:14:43;;;;;;;12.98;5.63;;;;;;;;;;5076042;28;20028;-75
2022/04/12 10:17:09;;;;;;;8.32;6.32;;;;;;;;;;5076261;28;20031;-77
2022/04/12 10:19:36;;;;;;;7.82;4.47;;;999.00;537.60;;;;;;5075920;28;20114;-77
2022/04/12 10:22:03;;;;;;;5.47;3.95;;;;;;;;;;5076153;28;20016;-77
2022/04/12 10:24:30;;;;;;;4.43;3.70;;;;;;;;;;5075927;28;20020;-78
2022/04/12 10:26:56;;;;;;;4.55;4.03;;;;;;;;;;5076206;28;20029;-77
2022/04/12 10:29:23;;;;;;;5.75;4.05;;;;;;;;;;5076178;28;20021;-76
2022/04/12 10:31:59;;;;;;;33.70;10.70;;;;;;;;;;5076195;28;20498;-77
2022/04/12 10:34:25;;;;;;;9.27;6.20;;;;;;;;;;5075927;28;20395;-77
2022/04/12 10:37:04;;;;;;;7.88;6.60;;;;;;;;;;5075856;28;20489;-77
2022/04/12 10:39:50;;;;;;;8.70;6.38;;;1076.10;460.80;;;;;;5076332;28;20105;-76
2022/04/12 10:42:24;;;;;;;7.07;4.68;;;1075.90;460.80;;;;;;5075944;28;20150;-77
2022/04/12 10:44:56;;;;;;;6.00;4.25;;;1075.80;460.80;;;;;;5075704;28;20023;-76
2022/04/12 10:47:24;;;;;;;3.88;3.20;;;;;;;;;;5075947;28;20032;-76
2022/04/12 10:49:55;;;;;;;6.07;5.07;;;1075.70;460.80;;;;;;5075702;28;20024;-77
2022/04/12 10:52:31;;;;;;;4.88;3.90;;;;;;;;;;5076150;28;20028;-76
2022/04/12 10:54:57;;;;;;;4.47;3.58;;;;;;;;;;5075647;28;20040;-76
2022/04/12 10:57:24;;;;;;;5.57;4.30;;;;;;;;;;5075469;28;20017;-77
2022/04/12 10:59:50;;;;;;;6.72;5.13;;;;;;;;;;5075376;28;20031;-76
2022/04/12 11:02:17;;;;;;;10.93;7.15;;;;;;;;;;5075426;28;20044;-75
2022/04/12 11:04:43;;;;;;;11.45;4.78;;;;;;;;;;5075141;28;20060;-76
2022/04/12 11:07:09;;;;;;;11.23;6.43;;;;;;;;;;5073941;28;20038;-76
2022/04/12 11:09:35;;;;;;;11.65;4.55;;;1050.00;563.20;;;;;;5074884;28;20055;-76
2022/04/12 11:12:03;;;;;;;5.85;4.18;;;;;;;;;;5057301;28;20032;-77
2022/04/12 11:14:37;;;;;;;5.57;4.40;;;1075.80;486.40;;;;;;5075023;28;20498;-76
2022/04/12 11:17:04;;;;;;;4.53;3.55;;;;;;;;;;5075073;28;20124;-77
2022/04/12 11:19:41;;;;;;;5.00;3.65;;;;;;;;;;5075014;28;20024;-76
2022/04/12 11:22:10;;;;;;;6.07;3.78;;;;;;;;;;5075019;28;20512;-77
2022/04/12 11:24:40;;;;;;;6.80;3.67;;;;;;;;;;5074836;28;20070;-76
2022/04/12 11:27:10;;;;;;;7.20;3.63;;;;;;;;;;5074945;28;20605;-78
2022/04/12 11:29:37;;;;;;;3.83;3.13;;;;;;;;;;5074679;28;20104;-76
2022/04/12 11:32:04;;;;;;;10.57;4.78;;;999.10;537.60;;;;;;5074755;28;20024;-77
2022/04/12 11:34:32;;;;;;;12.07;6.97;;;;;;;;;;5074338;28;20032;-76
2022/04/12 11:37:03;;;;;;;6.10;3.50;;;;;;;;;;5074759;28;20608;-76
2022/04/12 11:39:31;;;;;;;6.20;3.67;;;;;;;;;;5074634;28;20439;-77
2022/04/12 11:41:58;;;;;;;5.93;3.92;;;;;;;;;;5074678;28;20404;-76
2022/04/12 11:44:24;;;;;;;5.22;4.00;;;;;;;;;;5074753;28;20055;-77
2022/04/12 11:46:56;;;;;;;5.47;3.13;;;;;;;;;;5074519;28;20035;-77
2022/04/12 11:49:27;;;;;;;7.95;5.30;;;;;;;;;;5074525;28;20039;-77
2022/04/12 11:51:53;;;;;;;9.63;3.47;;;947.60;537.60;;;;;;5074602;28;20024;-79
2022/04/12 11:54:20;;;;;;;4.05;3.00;;;;;;;;;;5074539;28;20037;-77
2022/04/12 11:56:47;;;;;;;8.25;3.83;;;;;;;;;;5074393;28;20483;-75
2022/04/12 11:59:13;;;;;;;12.57;5.20;;;;;;;;;;5074253;28;20013;-76
2022/04/12 12:01:39;;;;;;;5.93;4.30;;;;;;;;;;5073877;28;20036;-75
2022/04/12 12:04:06;;;;;;;6.22;4.60;;;;;;;;;;5074037;28;20020;-76
2022/04/12 12:06:32;;;;;;;6.65;3.97;;;;;;;;;;5074029;28;20025;-77
2022/04/12 12:08:58;;;;;;;17.45;6.20;;;;;;;;;;5073887;28;20053;-75
2022/04/12 12:11:24;;;;;;;10.77;4.13;;;;;;;;;;5073951;28;20066;-74
2022/04/12 12:13:57;;;;;;;5.40;2.50;;;;;;;;;;5056739;28;20031;-77
2022/04/12 12:16:23;;;;;;;5.00;3.20;;;819.50;614.40;;;;;;5073783;28;20025;-75
2022/04/12 12:18:50;;;;;;;3.50;2.50;;;;;;;;;;5073676;28;20103;-74
2022/04/12 12:21:19;;;;;;;3.80;2.80;;;;;;;;;;5073704;28;20429;-73
2022/04/12 12:23:46;;;;;;;4.05;2.80;;;;;;;;;;5073682;28;20028;-73
2022/04/12 12:26:12;;;;;;;3.75;3.00;;;;;;;;;;5073697;28;20024;-74
2022/04/12 12:28:41;;;;;;;6.05;3.33;;;;;;;;;;5073449;28;20107;-74
2022/04/12 12:31:10;;;;;;;7.30;4.50;;;;;;;;;;5073577;28;20024;-73
2022/04/12 12:33:43;;;;;;;8.68;4.18;;;742.40;742.40;;;;;;5073421;28;20020;-74
2022/04/12 12:36:19;;;;;;;8.43;7.07;;;;;;;;;;5073616;28;20033;-73
2022/04/12 12:38:45;;;;;;;5.97;3.25;;;717.10;742.40;;;;;;5073511;28;20108;-73
2022/04/12 12:41:11;;;;;;;5.22;3.75;;;;;;;;;;5054990;28;20097;-72
2022/04/12 12:43:37;;;;;;;6.60;3.72;;;;;;;;;;5073305;28;20055;-74
2022/04/12 12:46:07;;;;;;;6.45;4.25;;;716.90;742.40;;;;;;5073618;28;20021;-70
2022/04/12 12:48:33;;;;;;;6.35;3.72;;;717.00;768.00;;;;;;5073328;28;20463;-74
2022/04/12 12:51:04;;;;;;;8.70;4.32;;;691.70;768.00;;;;;;5055406;28;20029;-75
2022/04/12 12:53:30;;;;;;;8.57;3.92;;;;;;;;;;5073280;28;20021;-75
2022/04/12 12:55:56;;;;;;;7.00;3.10;;;;;;;;;;5073082;28;20098;-74
2022/04/12 12:58:29;;;;;;;8.48;3.42;;;;;;;;;;5073021;28;20048;-74
2022/04/12 13:01:04;;;;;;;13.30;4.25;;;;;;;;;;5073086;28;20021;-76
2022/04/12 13:03:30;;;;;;;8.63;4.90;;;;;;;;;;5073270;28;20166;-74
2022/04/12 13:06:00;;;;;;;7.90;3.42;;;;;;;;;;5072978;28;20024;-73
2022/04/12 13:08:28;;;;;;;6.50;3.65;;;;;;;;;;5072807;28;20123;-74
2022/04/12 13:10:56;;;;;;;5.25;3.35;;;;;;;;;;5072869;28;20052;-73
2022/04/12 13:13:22;;;;;;;10.88;5.68;;;;;;;;;;5073088;28;20039;-74
2022/04/12 13:15:48;;;;;;;7.60;3.85;;;;;;;;;;5054710;28;20048;-73
2022/04/12 13:18:15;;;;;;;11.30;4.72;;;;;;;;;;5073095;28;20056;-73
2022/04/12 13:20:41;;;;;;;4.65;3.38;;;;;;;;;;5072896;28;20035;-76
2022/04/12 13:23:07;;;;;;;7.65;4.45;;;;;;;;;;5072944;28;20081;-73
2022/04/12 13:25:34;;;;;;;9.38;3.67;;;;;;;;;;5072861;28;20052;-74
2022/04/12 13:28:00;;;;;;;8.30;5.70;;;;;;;;;;5072860;28;20100;-73
2022/04/12 13:30:26;;;;;;;8.60;3.92;;;;;;;;;;5072036;28;20489;-75
2022/04/12 13:32:53;;;;;;;8.07;5.03;;;;;;;;;;5072615;28;20028;-74
2022/04/12 13:35:21;;;;;;;16.23;7.40;;;;;;;;;;5072620;28;20174;-76
2022/04/12 13:37:48;;;;;;;4.90;3.25;;;;;;;;;;5072772;28;20024;-75
2022/04/12 13:40:14;;;;;;;9.60;5.65;;;;;;;;;;5072718;28;20407;-76
2022/04/12 13:42:46;;;;;;;13.38;10.13;;;;;;;;;;5072718;28;20036;-76
2022/04/12 13:45:14;;;;;;;19.05;10.07;;;;;;;;;;5072803;28;20028;-76
2022/04/12 13:47:40;;;;;;;15.77;6.47;;;;;;;;;;5072682;28;20569;-77
2022/04/12 13:50:07;;;;;;;8.55;4.50;;;;;;;;;;5072937;28;20032;-78
2022/04/12 13:52:32;;;;;;;10.27;3.83;;;614.80;870.40;;;;;;5072899;28;20021;-75
2022/04/12 13:55:01;;;;;;;9.32;6.05;;;614.70;844.80;;;;;;5072948;28;20082;-76
2022/04/12 13:57:27;;;;;;;8.15;3.63;;;;;;;;;;5072822;28;20052;-75
2022/04/12 13:59:53;;;;;;;13.00;3.75;;;;;;;;;;5072599;28;20432;-75
2022/04/12 14:02:19;;;;;;;3.33;2.90;;;;;;;;;;5072488;28;20025;-75
2022/04/12 14:04:45;;;;;;;5.28;3.60;;;;;;;;;;5072775;28;20035;-74
2022/04/12 14:07:11;;;;;;;7.90;4.32;;;;;;;;;;5073016;28;20021;-72
2022/04/12 14:09:38;;;;;;;9.57;3.70;;;;;;;;;;5072194;28;20072;-77
2022/04/12 14:12:04;;;;;;;8.52;6.03;;;;;;;;;;5072223;28;20108;-77